Flight Track Log - Related Links

Times and Time Zones

All times are in EDT time to prevent confusion due to time zone crossing. See the SWA3206 flight status page for this flight to view local times or setup timezone preferences in your user account.

Time Position Orientation Groundspeed Altitude Reporting Facility
EDT Latitude Longitude Course Direction KTS MPH feet Rate Location/Type
Fri 04:10:31 PM 33.4333 -111.9500 90° East 180 207 3,100  Level Phoenix TRACON
Fri 04:11:31 PM 33.4333 -111.8667 90° East 232 267 5,300 1,918 Climbing Phoenix TRACON
Fri 04:12:08 PM 33.4467 -111.8297 67° East 240 276 6,200 2,364 Climbing Albuquerque Center
Fri 04:13:10 PM 33.4589 -111.7358 81° East 282 325 9,200 2,710 Climbing Albuquerque Center
Fri 04:14:12 PM 33.4722 -111.6289 81° East 313 360 11,800 2,976 Climbing Albuquerque Center
Fri 04:15:13 PM 33.4883 -111.5003 81° East 340 391 15,300 3,024 Climbing Albuquerque Center
Fri 04:16:15 PM 33.5025 -111.3792 82° East 365 420 18,000 2,661 Climbing Albuquerque Center
Fri 04:17:17 PM 33.5164 -111.2522 82° East 385 443 20,800 2,565 Climbing Albuquerque Center
Fri 04:18:19 PM 33.5300 -111.1239 83° East 390 449 23,300 2,129 Climbing Albuquerque Center
Fri 04:19:21 PM 33.5450 -110.9889 82° East 405 466 25,200 1,742 Climbing Albuquerque Center
Fri 04:20:23 PM 33.5681 -110.8492 79° East 417 480 26,900 1,645 Climbing Albuquerque Center
Fri 04:21:25 PM 33.6258 -110.6806 68° East 443 510 28,600 1,403 Climbing Albuquerque Center
Fri 04:22:27 PM 33.6733 -110.5319 69° East 461 531 29,800 1,355 Climbing Albuquerque Center
Fri 04:23:29 PM 33.7233 -110.3750 69° East 486 559 31,400 1,610 Climbing Albuquerque Center
Fri 04:24:30 PM 33.7794 -110.2211 66° East 498 573 33,100 1,512 Climbing Albuquerque Center
Fri 04:25:32 PM 33.8431 -110.0717 63° Northeast 501 577 34,500 1,113 Climbing Albuquerque Center
Fri 04:26:34 PM 33.9056 -109.9169 64° Northeast 507 583 35,400 871 Climbing Albuquerque Center
Fri 04:27:36 PM 33.9694 -109.7581 64° Northeast 519 597 36,300 1,016 Climbing Albuquerque Center
Fri 04:28:38 PM 34.0378 -109.5817 65° Northeast 527 606 37,500 1,258 Climbing Albuquerque Center
Fri 04:29:40 PM 34.1092 -109.4047 64° Northeast 530 610 38,900 732 Climbing Albuquerque Center
Fri 04:30:41 PM 34.1708 -109.2483 64° Northeast 523 602 39,000 49 Climbing Albuquerque Center
Fri 04:31:43 PM 34.2372 -109.0814 64° Northeast 515 593 39,000  Level Albuquerque Center
Fri 04:32:45 PM 34.2947 -108.9336 65° Northeast 512 589 39,000  Level Albuquerque Center
Fri 04:33:47 PM 34.3625 -108.7600 65° Northeast 512 589 39,000  Level Albuquerque Center
Fri 04:34:49 PM 34.4208 -108.6117 64° Northeast 511 588 39,000  Level Albuquerque Center
Fri 04:35:50 PM 34.4789 -108.4597 65° Northeast 512 589 39,000  Level Albuquerque Center
Fri 04:36:52 PM 34.5378 -108.3033 65° Northeast 511 588 39,000  Level Albuquerque Center
Fri 04:37:54 PM 34.5844 -108.1408 71° East 510 587 39,000  Level Albuquerque Center
Fri 04:38:56 PM 34.6383 -107.9469 71° East 508 585 39,000  Level Albuquerque Center
Fri 04:39:57 PM 34.6806 -107.7847 72° East 507 583 39,000  Level Albuquerque Center
Fri 04:40:59 PM 34.7261 -107.6239 71° East 505 581 39,000  Level Albuquerque Center
Fri 04:42:01 PM 34.7833 -107.4453 69° East 512 589 39,000  Level Albuquerque Center
Fri 04:43:03 PM 34.8469 -107.2925 63° Northeast 508 585 39,000  Level Albuquerque Center
Fri 04:44:05 PM 34.9106 -107.1225 65° Northeast 512 589 39,000  Level Albuquerque Center
Fri 04:45:06 PM 34.9692 -106.9664 65° Northeast 509 586 39,000  Level Albuquerque Center
Fri 04:46:08 PM 35.0267 -106.8153 65° Northeast 514 592 39,000  Level Albuquerque Center
Fri 04:47:10 PM 35.0872 -106.6572 65° Northeast 515 593 39,000  Level Albuquerque Center
Fri 04:48:12 PM 35.1461 -106.4969 66° East 518 596 39,000  Level Albuquerque Center
Fri 04:49:14 PM 35.2158 -106.3064 66° East 517 595 39,000 -49 Level Albuquerque Center
Fri 04:50:15 PM 35.2742 -106.1508 65° Northeast 512 589 38,900  Descending Albuquerque Center
Fri 04:51:17 PM 35.3317 -105.9947 66° East 510 587 39,000 48 Climbing Albuquerque Center
Fri 04:52:19 PM 35.3894 -105.8386 66° East 511 588 39,000  Level Albuquerque Center
Fri 04:53:21 PM 35.4475 -105.6814 66° East 512 589 39,000  Level Albuquerque Center
Fri 04:54:23 PM 35.5144 -105.4967 66° East 510 587 39,000  Level Albuquerque Center
Fri 04:55:24 PM 35.5750 -105.3347 65° Northeast 513 590 39,000  Level Albuquerque Center
Fri 04:56:26 PM 35.6331 -105.1717 66° East 514 592 39,000  Level Albuquerque Center
Fri 04:57:28 PM 35.6917 -105.0086 66° East 515 593 39,000  Level Albuquerque Center
Fri 04:58:30 PM 35.7486 -104.8481 66° East 509 586 39,000  Level Albuquerque Center
Fri 04:59:31 PM 35.8064 -104.6858 66° East 510 587 39,000  Level Albuquerque Center
Fri 05:00:33 PM 35.8650 -104.5222 66° East 513 590 39,000  Level Albuquerque Center
Fri 05:01:35 PM 35.9214 -104.3594 67° East 511 588 39,000  Level Albuquerque Center
Fri 05:02:37 PM 35.9783 -104.1969 67° East 511 588 39,000  Level Albuquerque Center
Fri 05:03:38 PM 36.0442 -104.0069 67° East 510 587 39,000  Level Albuquerque Center
Fri 05:04:40 PM 36.0994 -103.8428 67° East 511 588 39,000  Level Albuquerque Center
Fri 05:05:42 PM 36.1522 -103.6789 68° East 508 585 39,000  Level Albuquerque Center
Fri 05:06:44 PM 36.2058 -103.5153 68° East 508 585 39,000  Level Albuquerque Center
Fri 05:07:45 PM 36.2589 -103.3528 68° East 506 582 39,000  Level Albuquerque Center
Fri 05:08:47 PM 36.3106 -103.1875 69° East 508 585 39,000  Level Albuquerque Center
Fri 05:09:49 PM 36.3622 -103.0217 69° East 510 587 39,000  Level Albuquerque Center
Fri 05:10:51 PM 36.4189 -102.8428 68° East 507 583 39,000  Level Albuquerque Center
Fri 05:11:52 PM 36.4700 -102.6800 69° East 506 582 39,000  Level Albuquerque Center
Fri 05:12:54 PM 36.5208 -102.5161 69° East 507 583 39,000  Level Albuquerque Center
Fri 05:13:56 PM 36.5725 -102.3517 69° East 509 586 39,000  Level Albuquerque Center
Fri 05:14:57 PM 36.6275 -102.1747 69° East 504 580 39,000  Level Albuquerque Center
Fri 05:15:59 PM 36.6756 -102.0175 69° East 507 583 39,000  Level Albuquerque Center
Fri 05:17:01 PM 36.7311 -101.8336 69° East 508 585 39,000  Level Albuquerque Center
Fri 05:18:03 PM 36.7783 -101.6783 69° East 505 581 39,000  Level Albuquerque Center
Fri 05:18:58 PM 36.8253 -101.5194 70° East 507 583 39,000  Level Kansas City Center
Fri 05:20:00 PM 36.8722 -101.3636 69° East 505 581 39,000  Level Kansas City Center
Fri 05:21:02 PM 36.9269 -101.1806 69° East 505 581 39,000  Level Kansas City Center
Fri 05:22:04 PM 36.9733 -101.0217 70° East 508 585 39,000  Level Kansas City Center
Fri 05:23:06 PM 37.0286 -100.8372 69° East 509 586 39,000  Level Kansas City Center
Fri 05:24:09 PM 37.0747 -100.6786 70° East 510 587 39,000  Level Kansas City Center
Fri 05:25:11 PM 37.1283 -100.4942 70° East 509 586 39,000  Level Kansas City Center
Fri 05:26:13 PM 37.1736 -100.3361 70° East 508 585 39,000  Level Kansas City Center
Fri 05:27:15 PM 37.2267 -100.1511 70° East 508 585 39,000  Level Kansas City Center
Fri 05:28:17 PM 37.2722 -99.9939 70° East 505 581 39,000  Level Kansas City Center
Fri 05:29:19 PM 37.3239 -99.8081 71° East 506 582 39,000  Level Kansas City Center
Fri 05:30:21 PM 37.3692 -99.6486 70° East 507 583 39,000  Level Kansas City Center
Fri 05:31:23 PM 37.4211 -99.4653 70° East 502 578 39,000  Level Kansas City Center
Fri 05:33:27 PM 37.5142 -99.1286 71° East 505 581 39,000  Level Kansas City Center
Fri 05:34:29 PM 37.5592 -98.9631 71° East 503 579 39,000  Level Kansas City Center
Fri 05:35:31 PM 37.6050 -98.7964 71° East 503 579 39,000  Level Kansas City Center
Fri 05:36:33 PM 37.6500 -98.6294 71° East 503 579 39,000  Level Kansas City Center
Fri 05:37:35 PM 37.7042 -98.4283 71° East 506 582 39,000  Level Kansas City Center
Fri 05:38:37 PM 37.7486 -98.2631 71° East 500 575 39,000  Level Kansas City Center
Fri 05:39:39 PM 37.7917 -98.0956 72° East 502 578 39,000  Level Kansas City Center
Fri 05:40:41 PM 37.8358 -97.9283 71° East 501 577 39,000 -532 Level Kansas City Center
Fri 05:41:43 PM 37.8792 -97.7608 72° East 501 577 37,900 -1,016 Descending Kansas City Center
Fri 05:42:45 PM 37.9286 -97.5786 71° East 508 585 36,900 -968 Descending Kansas City Center
Fri 05:43:47 PM 37.9728 -97.3989 73° East 515 593 35,900 -919 Descending Kansas City Center
Fri 05:44:49 PM 38.0169 -97.2264 72° East 518 596 35,000 -919 Descending Kansas City Center
Fri 05:45:51 PM 38.0844 -97.0672 62° Northeast 512 589 34,000 -968 Descending Kansas City Center
Fri 05:46:53 PM 38.1514 -96.9139 61° Northeast 500 575 33,000 -1,258 Descending Kansas City Center
Fri 05:47:55 PM 38.2306 -96.7361 60° Northeast 483 556 31,400 -1,790 Descending Kansas City Center
Fri 05:48:57 PM 38.2950 -96.5947 60° Northeast 466 536 29,300 -1,935 Descending Kansas City Center
Fri 05:49:59 PM 38.3542 -96.4578 61° Northeast 450 518 27,400 -1,935 Descending Kansas City Center
Fri 05:51:01 PM 38.4211 -96.3083 60° Northeast 436 502 25,300 -1,887 Descending Kansas City Center
Fri 05:52:03 PM 38.4761 -96.1828 61° Northeast 425 489 23,500 -1,694 Descending Kansas City Center
Fri 05:53:05 PM 38.5381 -96.0406 61° Northeast 414 476 21,800 -1,452 Descending Kansas City Center
Fri 05:54:07 PM 38.5900 -95.9186 61° Northeast 409 471 20,500 -1,694 Descending Kansas City Center
Fri 05:55:09 PM 38.6497 -95.7822 61° Northeast 397 457 18,300 -2,032 Descending Kansas City Center
Fri 05:56:11 PM 38.6992 -95.6689 61° Northeast 385 443 16,300 -2,081 Descending Kansas City Center
Fri 05:57:13 PM 38.7536 -95.5403 61° Northeast 369 425 14,000 -1,984 Descending Kansas City Center
Fri 05:58:15 PM 38.7989 -95.4369 61° Northeast 350 403 12,200 -1,694 Descending Kansas City Center
Fri 05:59:17 PM 38.8681 -95.3325 50° Northeast 342 394 10,500 -1,355 Descending Kansas City Center
Fri 06:00:19 PM 38.9206 -95.2508 50° Northeast 314 361 9,400 -1,161 Descending Kansas City Center
Fri 06:01:21 PM 38.9581 -95.1472 65° Northeast 288 331 8,100 -1,210 Descending Kansas City Center
Fri 06:02:23 PM 38.9900 -95.0647 63° Northeast 273 314 6,900 -1,258 Descending Kansas City Center
Fri 06:03:25 PM 39.0244 -94.9722 64° Northeast 259 298 5,500 -968 Descending Kansas City Center
Fri 06:04:27 PM 39.0628 -94.9047 54° Northeast 245 282 4,900 -581 Descending Kansas City Center
Fri 06:05:29 PM 39.1028 -94.8356 53° Northeast 218 251 4,300 -677 Descending Kansas City Center
Fri 06:06:31 PM 39.1375 -94.7775 52° Northeast 214 246 3,500 -677 Descending Kansas City Center
Fri 06:07:33 PM 39.1844 -94.7614 15° North 187 215 2,900 -629 Descending Kansas City Center
Fri 06:08:35 PM 39.2339 -94.7475 12° North 163 188 2,200 -677 Descending Kansas City Center
Fri 06:09:37 PM 39.2697 -94.7361 14° North 142 163 1,500 -629 Descending Kansas City Center
Fri 06:10:39 PM 39.3125 -94.7236 13° North 138 159 900 -581 Descending Kansas City Center

Login

Don't have an account? Register now (free) for customized features, flight alerts, and more!